createdAt,value
2022-08-04T00:01:22.766Z,77.06
2022-08-04T00:11:31.614Z,78.36
2022-08-04T00:21:39.696Z,77.19
2022-08-04T00:31:56.258Z,76.76
2022-08-04T00:42:30.042Z,75.52
2022-08-04T00:52:43.309Z,74.91
2022-08-04T01:03:16.834Z,74.86
2022-08-04T01:13:43.331Z,74.94
2022-08-04T01:24:06.871Z,73.90
2022-08-04T01:34:14.600Z,72.12
2022-08-04T01:44:19.779Z,70.86
2022-08-04T01:54:24.718Z,70.71
2022-08-04T02:04:27.657Z,70.16
2022-08-04T02:14:45.683Z,69.43
2022-08-04T02:24:53.691Z,68.83
2022-08-04T02:35:04.850Z,69.26
2022-08-04T02:45:08.926Z,68.73
2022-08-04T02:55:13.738Z,68.17
2022-08-04T03:05:19.882Z,67.59
2022-08-04T03:15:51.430Z,67.83
2022-08-04T03:26:23.403Z,69.61
2022-08-04T03:37:12.821Z,71.50
2022-08-04T03:47:48.771Z,75.05
2022-08-04T03:58:22.155Z,76.44
2022-08-04T04:09:16.304Z,77.84
2022-08-04T04:19:52.526Z,78.71
2022-08-04T04:30:08.968Z,80.60
2022-08-04T04:40:29.952Z,80.52
2022-08-04T04:50:41.961Z,80.84
2022-08-04T05:01:01.388Z,80.85
2022-08-04T05:11:26.571Z,80.20
2022-08-04T05:21:39.090Z,79.53
2022-08-04T05:31:50.831Z,79.13
2022-08-04T05:41:58.481Z,78.82
2022-08-04T05:52:08.668Z,76.51
2022-08-04T06:02:16.906Z,75.39
2022-08-04T06:12:26.353Z,75.38
2022-08-04T06:22:32.111Z,74.62
2022-08-04T06:32:47.315Z,73.79
2022-08-04T06:42:52.797Z,71.68
2022-08-04T06:52:55.805Z,69.60
2022-08-04T07:03:01.101Z,68.52
2022-08-04T07:13:04.322Z,69.06
2022-08-04T07:23:08.866Z,69.52
2022-08-04T07:33:12.287Z,69.48
2022-08-04T07:43:18.184Z,69.21
2022-08-04T07:53:55.136Z,66.53
2022-08-04T08:03:48.931Z,65.56
2022-08-04T08:13:52.369Z,64.78
2022-08-04T08:23:57.063Z,63.54
2022-08-04T08:34:00.615Z,60.25
2022-08-04T08:44:19.328Z,58.34
2022-08-04T08:55:06.469Z,57.57
2022-08-04T09:05:39.684Z,56.03
2022-08-04T09:15:54.026Z,53.93
2022-08-04T09:26:05.532Z,51.30
2022-08-04T09:36:14.868Z,48.62
2022-08-04T09:46:38.546Z,47.96
2022-08-04T09:56:51.970Z,49.18
2022-08-04T10:07:37.869Z,52.76
2022-08-04T10:17:54.318Z,56.78
2022-08-04T10:28:01.419Z,63.99
2022-08-04T10:38:13.433Z,78.74
2022-08-04T10:48:34.307Z,87.14
2022-08-04T10:58:47.650Z,91.35
2022-08-04T11:08:57.161Z,92.14
2022-08-04T11:19:16.455Z,88.97
2022-08-04T11:29:26.721Z,85.19
2022-08-04T11:39:36.224Z,82.75
2022-08-04T11:49:56.677Z,77.21
2022-08-04T12:00:07.508Z,72.48
2022-08-04T12:10:41.731Z,64.36
2022-08-04T12:20:50.694Z,64.65
2022-08-04T12:31:04.221Z,62.13
2022-08-04T12:41:12.818Z,60.23
2022-08-04T12:52:06.437Z,61.67
2022-08-04T13:02:09.627Z,61.46
2022-08-04T13:12:15.566Z,59.90
2022-08-04T13:22:27.753Z,56.93
2022-08-04T13:32:32.341Z,56.57
2022-08-04T13:42:38.434Z,54.12
2022-08-04T13:52:42.620Z,54.25
2022-08-04T14:02:51.556Z,53.28
2022-08-04T14:12:56.354Z,52.69
2022-08-04T14:23:02.259Z,49.26
2022-08-04T14:34:02.945Z,48.05
2022-08-04T14:43:31.719Z,47.55
2022-08-04T14:53:38.878Z,46.99
2022-08-04T15:03:49.981Z,44.23
2022-08-04T15:13:57.655Z,43.66
2022-08-04T15:24:02.018Z,45.82
2022-08-04T15:34:05.051Z,45.01
2022-08-04T15:44:28.559Z,44.95
2022-08-04T15:54:33.162Z,46.18
2022-08-04T16:04:37.806Z,48.54
2022-08-04T16:14:40.937Z,49.44
2022-08-04T16:24:54.567Z,50.32
2022-08-04T16:34:59.927Z,51.21
2022-08-04T16:45:13.658Z,51.06
2022-08-04T16:55:17.178Z,50.71
2022-08-04T17:05:38.194Z,51.22
2022-08-04T17:15:48.927Z,52.37
2022-08-04T17:25:59.129Z,52.18
2022-08-04T17:36:04.217Z,53.66
2022-08-04T17:46:39.394Z,54.60
2022-08-04T17:56:52.331Z,54.83
2022-08-04T18:07:00.521Z,55.49
2022-08-04T18:17:03.741Z,56.09
2022-08-04T18:27:31.262Z,56.80
2022-08-04T18:38:05.983Z,57.14
2022-08-04T18:47:59.589Z,57.90
2022-08-04T19:08:34.622Z,59.46
2022-08-04T19:18:38.607Z,59.97
2022-08-04T19:28:43.077Z,60.25
2022-08-04T19:38:50.696Z,68.78
2022-08-04T19:48:59.797Z,77.78
2022-08-04T19:59:03.676Z,84.58
2022-08-04T20:19:31.567Z,88.97
2022-08-04T20:29:40.103Z,86.83
2022-08-04T20:39:44.250Z,87.89
2022-08-04T20:49:48.708Z,89.33
2022-08-04T20:59:59.641Z,93.01
2022-08-04T21:10:05.597Z,93.31
2022-08-04T21:20:12.891Z,93.26
2022-08-04T21:30:52.261Z,98.21
2022-08-04T21:40:58.880Z,99.25
2022-08-04T21:51:55.713Z,99.12
2022-08-04T22:01:52.366Z,99.47
2022-08-04T22:11:59.083Z,98.73
2022-08-04T22:22:06.920Z,99.50
2022-08-04T22:32:17.049Z,100.00
2022-08-04T22:42:19.826Z,99.78
2022-08-04T22:52:27.818Z,100.00
2022-08-04T23:02:34.904Z,100.00
2022-08-04T23:12:39.220Z,99.60
2022-08-04T23:22:45.934Z,99.56
2022-08-04T23:32:59.959Z,99.50
2022-08-04T23:43:16.859Z,99.23
2022-08-04T23:53:22.503Z,99.20
